Copper Mountain, CO

2:19 PM MDT on September 01, 2015 (GMT -0600)
Wildernest | | Change Station
CLOSE
Current Station
Personal Weather Station
Location: Silverthorne, CO
Elevation: 9232 ft
Nearby Weather Stations

Elev 9232 ft 39.62 °N, 106.08 °W | Updated 14 seconds ago

Mostly Cloudy
Mostly Cloudy
68.5 °F
Feels Like 68.5 °F
N
2.0
Wind Variable Wind from ENE
Gusts 2.5 mph

Today
High -- | Low -- °F
--% Chance of Precip.
Yesterday
High -- | Low -- °F
Precip. -- in
6:32 AM 7:35 PM
Waning Gibbous, 86% visible
Pressure 29.97 in
Visibility 10.0 miles
Clouds Mostly Cloudy 10000 ft
Mostly Cloudy 11000 ft
Dew Point 32 °F
Humidity 26%
Rainfall 0.00 in
Snow Depth Not available.
UV 2.0 out of 12
Pollen 9.90 out of 12
Air Quality Not available.
Flu Activity Not available.
METAR KLXV 011953Z AUTO 36009KT 10SM BKN100 BKN110 18/01 A3043 RMK AO2 LTG DSNT SW AND NW SLP148 T01830006
Pressure 29.97 in
Visibility 10.0 miles
Clouds Mostly Cloudy 10000 ft
Mostly Cloudy 11000 ft
Dew Point 32 °F
Humidity 26%
Rainfall 0.00 in
Snow Depth Not available.
UV 2.0 out of 12
Pollen 9.90 out of 12
Air Quality Not available.
Flu Activity Not available.
METAR KLXV 011953Z AUTO 36009KT 10SM BKN100 BKN110 18/01 A3043 RMK AO2 LTG DSNT SW AND NW SLP148 T01830006

10-Day Weather Forecast

×

Almanac

Astronomy

Sep. 01, 2015 Rise Set
Actual Time
Civil Twilight
Nautical Twilight
Astronomical Twilight
Moon
Length of Visible Light
Length of Day
Tomorrow will be .
, % of the Moon is Illuminated

Today's Extremes

State Highs State Lows

Community

WunderPhotos

Upload Photos

1,851,605 photos uploaded!

WunderBlogs® & News

Nearby

Air Quality

  Air Quality AQ Index Pollutant
Not available.

Snow Depth

Station Depth Elevation

Earthquake Activity

City Distance Mag. Time & Date
Minimum magnitude displayed is 2.5.

Coastal Water Temperatures

Place Temperature

Stations

Nearby Weather Stations

Station Location Temp. Windchill Dew Point Humidity Wind Precip. Elev Updated Type